Terminal Aerodrome Forecast
Issued by NWS Twin Cities, MN

Home | Current Version | Previous Version | Text Only | Print | Product List | Glossary Off
Versions: 1 2 3 4 5 6 7 8 9 10 11 12

000
FTUS43 KMPX 232339
TAFSTC
TAF
KSTC 232339Z 2400/2424 13007KT P6SM FEW070 BKN250
     FM241600 18013G21KT P6SM SCT060 BKN250 PROB30 2421/2424 -TSRA
      BKN050CB=

USA.gov is the U.S. government's official web portal to all federal, state and local government web resources and services.